Time;durP1;ratioP1;P1;durP2;ratioP2;P2;SDS_P1;SDS_P2;PMS_P1;PMS_P2;Temp;Humidity;BMP_temperature;BMP_pressure;BME280_temperature;BME280_humidity;BME280_pressure;Samples;Min_cycle;Max_cycle;Signal;HPM_P1;HPM_P2
2021/10/19 00:00:05;;;;;;;15.13;9.15;;;12.60;97.60;;;;;;5002338;28;20104;-82
2021/10/19 00:02:31;;;;;;;18.35;11.85;;;12.50;97.50;;;;;;4982684;28;20045;-82
2021/10/19 00:04:57;;;;;;;14.80;9.70;;;12.60;97.70;;;;;;4977430;28;20035;-82
2021/10/19 00:07:22;;;;;;;22.85;11.77;;;12.60;97.80;;;;;;4976826;28;20042;-82
2021/10/19 00:09:48;;;;;;;14.90;9.90;;;12.60;97.90;;;;;;4966269;28;20767;-82
2021/10/19 00:12:14;;;;;;;19.67;11.13;;;12.60;97.80;;;;;;4971046;28;20031;-82
2021/10/19 00:14:39;;;;;;;14.48;9.98;;;12.60;97.80;;;;;;4968517;28;20027;-82
2021/10/19 00:17:05;;;;;;;15.77;9.27;;;12.70;97.80;;;;;;4999249;28;20061;-82
2021/10/19 00:19:30;;;;;;;16.83;9.80;;;12.60;97.80;;;;;;5001534;28;20053;-82
2021/10/19 00:21:56;;;;;;;16.95;11.15;;;12.60;97.90;;;;;;4986382;28;20124;-82
2021/10/19 00:24:21;;;;;;;19.55;10.95;;;12.60;98.10;;;;;;4994111;28;20034;-82
2021/10/19 00:26:47;;;;;;;15.73;10.43;;;12.60;98.10;;;;;;4960900;28;20410;-81
2021/10/19 00:29:12;;;;;;;14.98;10.02;;;12.60;98.00;;;;;;4973549;28;20041;-82
2021/10/19 00:31:38;;;;;;;12.90;8.48;;;12.60;98.00;;;;;;4978645;28;20557;-82
2021/10/19 00:34:03;;;;;;;16.05;9.05;;;12.60;98.00;;;;;;4951888;28;20035;-81
2021/10/19 00:36:29;;;;;;;15.85;10.10;;;12.60;98.00;;;;;;4982900;28;20034;-82
2021/10/19 00:38:54;;;;;;;16.75;10.38;;;12.70;98.20;;;;;;4965940;28;20088;-82
2021/10/19 00:41:22;;;;;;;16.63;11.27;;;12.70;98.20;;;;;;4949869;28;20402;-82
2021/10/19 00:43:48;;;;;;;14.68;9.02;;;12.70;98.20;;;;;;4980434;28;20042;-82
2021/10/19 00:46:14;;;;;;;14.68;10.07;;;12.70;98.00;;;;;;4983781;28;20034;-82
2021/10/19 00:48:40;;;;;;;13.25;9.40;;;12.70;98.10;;;;;;4952376;28;20031;-82
2021/10/19 00:51:07;;;;;;;15.07;10.15;;;12.70;98.10;;;;;;5000898;28;20091;-82
2021/10/19 00:53:33;;;;;;;18.27;10.32;;;12.70;98.10;;;;;;4976994;28;20497;-81
2021/10/19 00:55:58;;;;;;;15.27;9.68;;;12.70;98.10;;;;;;4983375;28;20038;-81
2021/10/19 00:58:24;;;;;;;13.70;9.90;;;12.70;97.90;;;;;;4960196;28;20554;-82
2021/10/19 01:00:49;;;;;;;15.45;10.07;;;12.80;98.20;;;;;;4981465;28;20046;-81
2021/10/19 01:03:15;;;;;;;16.00;9.18;;;12.80;98.10;;;;;;4993197;28;20125;-82
2021/10/19 01:05:40;;;;;;;14.57;10.43;;;12.80;98.10;;;;;;4999713;28;20058;-82
2021/10/19 01:08:06;;;;;;;16.88;9.85;;;12.80;98.00;;;;;;5003151;28;20030;-82
2021/10/19 01:10:31;;;;;;;14.88;9.88;;;12.80;98.10;;;;;;5001722;28;20030;-82
2021/10/19 01:12:57;;;;;;;16.52;10.88;;;12.80;98.10;;;;;;5000776;28;20474;-82
2021/10/19 01:15:22;;;;;;;16.05;10.40;;;12.80;98.10;;;;;;4970079;28;20439;-81
2021/10/19 01:17:49;;;;;;;16.83;10.10;;;12.90;98.10;;;;;;5003195;28;20113;-82
2021/10/19 01:20:25;;;;;;;14.40;10.05;;;12.90;98.20;;;;;;4987241;28;20031;-82
2021/10/19 01:22:51;;;;;;;17.77;10.55;;;12.90;98.30;;;;;;4962082;28;20469;-82
2021/10/19 01:25:18;;;;;;;19.42;11.05;;;12.80;98.40;;;;;;4963211;28;20060;-82
2021/10/19 01:27:48;;;;;;;16.17;9.45;;;12.80;98.50;;;;;;4967038;28;20038;-82
2021/10/19 01:30:13;;;;;;;19.25;11.55;;;12.80;98.50;;;;;;4990094;28;20854;-82
2021/10/19 01:32:39;;;;;;;14.35;11.02;;;12.80;98.40;;;;;;4961231;28;20173;-82
2021/10/19 01:35:06;;;;;;;15.07;9.55;;;12.80;98.80;;;;;;4951450;28;20109;-82
2021/10/19 01:37:31;;;;;;;16.75;11.98;;;12.80;98.70;;;;;;4999436;28;20073;-82
2021/10/19 01:39:57;;;;;;;21.23;13.23;;;12.70;98.90;;;;;;4966338;28;20509;-82
2021/10/19 01:42:22;;;;;;;15.90;10.50;;;12.80;99.10;;;;;;4982204;28;20038;-82
2021/10/19 01:44:48;;;;;;;16.50;9.90;;;12.80;99.20;;;;;;4960801;28;20444;-82
2021/10/19 01:47:13;;;;;;;16.17;10.35;;;12.70;99.10;;;;;;4962415;28;20118;-82
2021/10/19 01:49:39;;;;;;;16.25;10.38;;;12.70;99.50;;;;;;4983577;28;20477;-82
2021/10/19 01:52:05;;;;;;;14.85;9.55;;;12.60;99.20;;;;;;4965994;28;20026;-82
2021/10/19 01:54:30;;;;;;;18.48;11.50;;;12.60;99.70;;;;;;4970482;28;20110;-82
2021/10/19 01:56:56;;;;;;;17.95;11.82;;;12.50;99.60;;;;;;4961042;28;20038;-83
2021/10/19 01:59:21;;;;;;;19.83;11.98;;;12.40;99.60;;;;;;4966365;28;20038;-83
2021/10/19 02:01:48;;;;;;;18.23;10.82;;;12.50;99.90;;;;;;4964301;28;20034;-82
2021/10/19 02:04:14;;;;;;;17.80;12.77;;;12.40;99.90;;;;;;4965743;28;20042;-83
2021/10/19 02:06:39;;;;;;;15.35;11.73;;;12.50;99.90;;;;;;4955578;28;20027;-83
2021/10/19 02:09:05;;;;;;;16.15;10.23;;;12.40;99.90;;;;;;4970491;28;20018;-83
2021/10/19 02:11:31;;;;;;;15.95;11.45;;;12.40;99.90;;;;;;4993668;28;20030;-83
2021/10/19 02:14:03;;;;;;;14.18;10.25;;;12.40;99.90;;;;;;5007963;28;20037;-86
2021/10/19 02:16:29;;;;;;;14.80;10.43;;;12.30;99.90;;;;;;4990435;28;20061;-87
2021/10/19 02:18:54;;;;;;;16.38;11.00;;;12.30;99.90;;;;;;4993077;28;20054;-86
2021/10/19 02:21:20;;;;;;;19.40;13.40;;;12.30;99.90;;;;;;5003838;28;20117;-87
2021/10/19 02:23:45;;;;;;;14.57;9.77;;;12.30;99.90;;;;;;4999901;28;20048;-86
2021/10/19 02:26:11;;;;;;;15.85;11.23;;;12.40;99.90;;;;;;4998774;28;20319;-86
2021/10/19 02:28:36;;;;;;;17.23;12.48;;;12.30;99.90;;;;;;4987248;28;20039;-86
2021/10/19 02:31:04;;;;;;;16.67;11.80;;;12.20;99.90;;;;;;4968187;28;20469;-86
2021/10/19 02:33:30;;;;;;;15.25;10.95;;;12.30;99.90;;;;;;4986757;28;20030;-86
2021/10/19 02:35:55;;;;;;;19.65;12.10;;;12.30;99.90;;;;;;4971973;28;20041;-86
2021/10/19 02:38:21;;;;;;;14.07;9.60;;;12.30;99.90;;;;;;4985883;28;20034;-86
2021/10/19 02:40:46;;;;;;;13.02;9.70;;;12.30;99.90;;;;;;4969008;28;20122;-85
2021/10/19 02:43:12;;;;;;;14.23;10.95;;;12.30;99.90;;;;;;4949372;28;20122;-86
2021/10/19 02:45:38;;;;;;;15.90;11.13;;;12.30;99.90;;;;;;5002001;28;20053;-86
2021/10/19 02:48:03;;;;;;;15.00;9.73;;;12.30;99.90;;;;;;4953009;28;20061;-82
2021/10/19 02:50:29;;;;;;;12.90;10.18;;;12.30;99.90;;;;;;4977148;28;20397;-82
2021/10/19 02:52:54;;;;;;;17.90;11.13;;;12.30;99.90;;;;;;4985478;28;20084;-82
2021/10/19 02:55:20;;;;;;;16.90;11.35;;;12.30;99.90;;;;;;4964866;28;20130;-82
2021/10/19 02:57:46;;;;;;;13.90;10.10;;;12.30;99.90;;;;;;4965305;28;20108;-82
2021/10/19 03:00:12;;;;;;;16.10;10.52;;;12.30;99.90;;;;;;4966860;28;20039;-82
2021/10/19 03:02:37;;;;;;;17.83;11.20;;;12.40;99.90;;;;;;4954076;28;20065;-82
2021/10/19 03:05:03;;;;;;;13.38;9.70;;;12.40;99.90;;;;;;4954409;28;20065;-82
2021/10/19 03:07:29;;;;;;;15.25;10.00;;;12.40;99.90;;;;;;4995913;28;20046;-82
2021/10/19 03:09:54;;;;;;;16.63;11.40;;;12.40;99.90;;;;;;5004623;28;20533;-82
2021/10/19 03:12:20;;;;;;;14.38;11.10;;;12.30;99.90;;;;;;5002826;28;20080;-82
2021/10/19 03:14:45;;;;;;;15.00;10.95;;;12.40;99.90;;;;;;5005435;28;20030;-82
2021/10/19 03:17:11;;;;;;;15.88;10.80;;;12.40;99.90;;;;;;5003449;28;20036;-82
2021/10/19 03:19:37;;;;;;;17.63;12.45;;;12.40;99.90;;;;;;4987985;28;20090;-82
2021/10/19 03:22:02;;;;;;;14.50;11.02;;;12.40;99.90;;;;;;4987493;28;20026;-82
2021/10/19 03:24:28;;;;;;;15.13;11.07;;;12.40;99.90;;;;;;4967566;28;20041;-82
2021/10/19 03:26:53;;;;;;;16.52;11.55;;;12.40;99.90;;;;;;4972845;28;20071;-82
2021/10/19 03:29:19;;;;;;;15.48;11.73;;;12.40;99.90;;;;;;4960060;28;20069;-82
2021/10/19 03:31:45;;;;;;;17.02;11.48;;;12.40;99.90;;;;;;5004456;28;20030;-82
2021/10/19 03:34:10;;;;;;;18.25;12.30;;;12.40;99.90;;;;;;4963620;28;20376;-82
2021/10/19 03:36:36;;;;;;;17.63;12.52;;;12.40;99.90;;;;;;4990793;28;20053;-82
2021/10/19 03:39:02;;;;;;;15.85;10.82;;;12.30;99.90;;;;;;4973327;28;20033;-83
2021/10/19 03:41:27;;;;;;;18.15;12.20;;;12.30;99.90;;;;;;4983707;28;20030;-83
2021/10/19 03:43:53;;;;;;;18.95;13.38;;;12.30;99.90;;;;;;4981847;28;20061;-84
2021/10/19 03:46:18;;;;;;;17.45;10.98;;;12.20;99.90;;;;;;4971149;28;20382;-84
2021/10/19 03:48:44;;;;;;;20.13;13.75;;;12.30;99.90;;;;;;4991117;28;20065;-84
2021/10/19 03:51:10;;;;;;;16.98;11.50;;;12.30;99.90;;;;;;4956469;28;20037;-84
2021/10/19 03:53:37;;;;;;;22.48;12.05;;;12.20;99.90;;;;;;5001396;28;20491;-84
2021/10/19 03:56:03;;;;;;;18.23;12.50;;;12.20;99.90;;;;;;4969549;28;20022;-83
2021/10/19 03:58:29;;;;;;;18.30;12.50;;;12.20;99.90;;;;;;4973487;28;20034;-84
2021/10/19 04:00:54;;;;;;;18.88;11.93;;;12.20;99.90;;;;;;4981198;28;20030;-83
2021/10/19 04:03:20;;;;;;;18.95;13.63;;;12.20;99.90;;;;;;4999158;28;20125;-83
2021/10/19 04:05:46;;;;;;;17.08;10.48;;;12.20;99.90;;;;;;5000513;28;20046;-83
2021/10/19 04:08:11;;;;;;;18.25;12.02;;;12.20;99.90;;;;;;4982807;28;20166;-84
2021/10/19 04:10:37;;;;;;;22.33;13.48;;;12.20;99.90;;;;;;4952442;28;20104;-84
2021/10/19 04:13:02;;;;;;;15.20;11.32;;;12.20;99.90;;;;;;4986853;28;20118;-83
2021/10/19 04:15:28;;;;;;;23.52;15.43;;;12.20;99.90;;;;;;5007719;28;20366;-83
2021/10/19 04:17:53;;;;;;;16.48;11.65;;;12.20;99.90;;;;;;4999903;28;20418;-85
2021/10/19 04:20:19;;;;;;;18.02;12.25;;;12.20;99.90;;;;;;4970209;28;20995;-84
2021/10/19 04:22:44;;;;;;;17.27;12.07;;;12.20;99.90;;;;;;5004187;28;20397;-84
2021/10/19 04:25:10;;;;;;;20.05;11.80;;;12.20;99.90;;;;;;4968918;28;20496;-84
2021/10/19 04:27:36;;;;;;;14.55;10.90;;;12.20;99.90;;;;;;4974769;28;20138;-84
2021/10/19 04:30:01;;;;;;;17.73;12.70;;;12.20;99.90;;;;;;4954339;28;20109;-84
2021/10/19 04:32:27;;;;;;;20.92;13.80;;;12.20;99.90;;;;;;4982359;28;20088;-84
2021/10/19 04:34:52;;;;;;;18.30;11.10;;;12.20;99.90;;;;;;4974866;28;20494;-85
2021/10/19 04:37:18;;;;;;;15.73;10.02;;;12.20;99.90;;;;;;5001922;28;20393;-84
2021/10/19 04:39:43;;;;;;;15.82;10.75;;;12.20;99.90;;;;;;4997240;28;20034;-85
2021/10/19 04:42:09;;;;;;;16.00;10.07;;;12.30;99.90;;;;;;4967450;28;20042;-84
2021/10/19 04:44:34;;;;;;;17.10;11.38;;;12.30;99.90;;;;;;4951854;28;20165;-84
2021/10/19 04:47:00;;;;;;;13.60;10.18;;;12.20;99.90;;;;;;4983616;28;20076;-84
2021/10/19 04:49:25;;;;;;;16.48;10.80;;;12.30;99.90;;;;;;4968305;28;20384;-84
2021/10/19 04:51:51;;;;;;;16.73;11.60;;;12.30;99.90;;;;;;4965662;28;20158;-84
2021/10/19 04:54:16;;;;;;;16.20;12.13;;;12.30;99.90;;;;;;4965000;28;20450;-84
2021/10/19 04:56:42;;;;;;;14.95;9.52;;;12.30;99.90;;;;;;4995633;28;20541;-85
2021/10/19 04:59:08;;;;;;;16.67;11.40;;;12.30;99.90;;;;;;5002376;28;20033;-84
2021/10/19 05:01:33;;;;;;;16.25;11.40;;;12.30;99.90;;;;;;4957865;28;20034;-84
2021/10/19 05:03:59;;;;;;;13.77;9.65;;;12.40;99.90;;;;;;4985191;28;20107;-84
2021/10/19 05:06:25;;;;;;;13.02;8.48;;;12.30;99.90;;;;;;4962597;28;20102;-84
2021/10/19 05:08:50;;;;;;;14.50;10.60;;;12.30;99.90;;;;;;4983486;28;21898;-84
2021/10/19 05:11:16;;;;;;;15.73;11.25;;;12.40;99.90;;;;;;4962298;28;20022;-84
2021/10/19 05:13:41;;;;;;;11.55;9.07;;;12.40;99.90;;;;;;4968037;28;20263;-84
2021/10/19 05:16:07;;;;;;;12.80;9.30;;;12.40;99.90;;;;;;4973468;28;20037;-84
2021/10/19 05:18:32;;;;;;;13.80;9.70;;;12.40;99.90;;;;;;4967769;28;20487;-84
2021/10/19 05:20:59;;;;;;;14.40;9.80;;;12.40;99.90;;;;;;4952861;28;20038;-83
2021/10/19 05:23:24;;;;;;;16.48;10.43;;;12.40;99.90;;;;;;4987111;28;20034;-83
2021/10/19 05:25:50;;;;;;;16.00;9.98;;;12.50;99.90;;;;;;4972431;28;20092;-83
2021/10/19 05:28:16;;;;;;;17.33;10.63;;;12.50;99.90;;;;;;4982425;28;20023;-83
2021/10/19 05:30:42;;;;;;;14.52;10.23;;;12.50;99.90;;;;;;4999239;28;20033;-83
2021/10/19 05:33:09;;;;;;;11.85;8.77;;;12.50;99.90;;;;;;4956751;28;20030;-83
2021/10/19 05:35:34;;;;;;;13.77;9.05;;;12.50;99.90;;;;;;4951786;28;20037;-83
2021/10/19 05:38:00;;;;;;;15.07;9.55;;;12.40;99.90;;;;;;4982093;28;20027;-83
2021/10/19 05:40:25;;;;;;;14.75;8.52;;;12.50;99.90;;;;;;4969856;28;20038;-83
2021/10/19 05:42:51;;;;;;;12.30;8.50;;;12.50;99.90;;;;;;4972081;28;20042;-83
2021/10/19 05:45:19;;;;;;;15.70;9.95;;;12.60;99.90;;;;;;4967272;28;20141;-84
2021/10/19 05:47:45;;;;;;;11.93;7.90;;;12.60;99.90;;;;;;4984887;28;20113;-83
2021/10/19 05:50:13;;;;;;;10.77;7.72;;;12.60;99.90;;;;;;4967239;28;20116;-83
2021/10/19 05:52:39;;;;;;;13.18;10.07;;;12.50;99.90;;;;;;4970715;28;20431;-83
2021/10/19 05:55:05;;;;;;;11.57;8.82;;;12.70;99.90;;;;;;4987233;28;20117;-83
2021/10/19 05:57:31;;;;;;;10.88;8.23;;;12.60;99.90;;;;;;4976151;28;20463;-84
2021/10/19 05:59:56;;;;;;;12.20;8.45;;;12.60;99.90;;;;;;4983838;28;20038;-83
2021/10/19 06:02:22;;;;;;;12.43;9.35;;;12.60;99.90;;;;;;4972800;28;20399;-84
2021/10/19 06:04:47;;;;;;;10.43;8.10;;;12.60;99.90;;;;;;4984706;28;20043;-84
2021/10/19 06:07:13;;;;;;;10.77;7.82;;;12.60;99.90;;;;;;4962950;28;20475;-84
2021/10/19 06:09:38;;;;;;;11.00;8.15;;;12.60;99.90;;;;;;4986850;28;20471;-84
2021/10/19 06:12:05;;;;;;;11.45;7.78;;;12.60;99.90;;;;;;4983146;28;20022;-84
2021/10/19 06:14:30;;;;;;;10.18;8.32;;;12.70;99.90;;;;;;4998979;28;20394;-84
2021/10/19 06:16:56;;;;;;;14.20;8.70;;;12.70;99.90;;;;;;4985688;28;20038;-84
2021/10/19 06:19:22;;;;;;;8.23;6.80;;;12.80;99.90;;;;;;5000084;28;20058;-84
2021/10/19 06:21:47;;;;;;;11.73;8.43;;;12.70;99.90;;;;;;4983492;28;20050;-84
2021/10/19 06:24:13;;;;;;;10.10;8.57;;;12.80;99.90;;;;;;4999715;28;20030;-84
2021/10/19 06:26:39;;;;;;;8.13;6.47;;;12.80;99.90;;;;;;4957489;28;20326;-84
2021/10/19 06:29:07;;;;;;;9.52;6.13;;;12.70;99.90;;;;;;4982514;28;20480;-84
2021/10/19 06:31:33;;;;;;;10.05;6.00;;;12.80;99.90;;;;;;4998926;28;20033;-84
2021/10/19 06:33:58;;;;;;;10.38;6.47;;;12.80;99.90;;;;;;4986145;28;20042;-84
2021/10/19 06:36:24;;;;;;;7.88;6.32;;;12.80;99.90;;;;;;4950093;28;20121;-84
2021/10/19 06:38:49;;;;;;;7.35;5.95;;;12.80;99.90;;;;;;4962168;28;20038;-84
2021/10/19 06:41:15;;;;;;;6.78;5.55;;;12.90;99.90;;;;;;4967308;28;20053;-84
2021/10/19 06:43:40;;;;;;;7.75;6.18;;;12.90;99.90;;;;;;4992546;28;20033;-84
2021/10/19 06:46:06;;;;;;;6.65;5.43;;;12.90;99.90;;;;;;5000958;28;20082;-84
2021/10/19 06:48:32;;;;;;;6.40;5.22;;;12.80;99.90;;;;;;5004174;28;20064;-85
2021/10/19 06:50:57;;;;;;;5.53;4.38;;;12.90;99.90;;;;;;4978241;28;20037;-84
2021/10/19 06:53:25;;;;;;;6.65;5.10;;;12.90;99.90;;;;;;4983114;28;20479;-84
2021/10/19 06:55:50;;;;;;;6.60;5.47;;;13.00;99.90;;;;;;4983424;28;20105;-84
2021/10/19 06:58:18;;;;;;;10.63;5.53;;;13.00;99.90;;;;;;4985027;28;20058;-84
2021/10/19 07:00:44;;;;;;;5.75;4.70;;;13.00;99.90;;;;;;4977036;28;20126;-84
2021/10/19 07:03:09;;;;;;;4.93;3.95;;;13.00;99.90;;;;;;4966538;28;20399;-84
2021/10/19 07:05:35;;;;;;;8.93;4.68;;;13.00;99.90;;;;;;4951172;28;1086291;-84
2021/10/19 07:08:00;;;;;;;5.65;4.82;;;13.10;99.90;;;;;;4988074;28;20030;-84
2021/10/19 07:10:26;;;;;;;6.63;3.38;;;13.10;99.90;;;;;;4983181;28;20065;-85
2021/10/19 07:12:52;;;;;;;4.95;2.95;;;13.10;99.90;;;;;;4981048;28;20034;-84
2021/10/19 07:15:17;;;;;;;4.85;4.10;;;13.10;99.90;;;;;;4980954;28;20387;-84
2021/10/19 07:17:43;;;;;;;5.53;4.22;;;13.20;99.90;;;;;;4983781;28;20160;-85
2021/10/19 07:20:10;;;;;;;3.97;3.53;;;13.10;99.90;;;;;;4984006;28;20040;-84
2021/10/19 07:22:36;;;;;;;4.65;3.60;;;13.30;99.90;;;;;;4970359;28;20037;-84
2021/10/19 07:25:03;;;;;;;10.05;4.57;;;13.20;99.90;;;;;;4642181;28;10000344;-84
2021/10/19 07:27:29;;;;;;;4.60;3.97;;;13.20;99.90;;;;;;5003884;28;20033;-84
2021/10/19 07:29:55;;;;;;;8.05;5.30;;;13.30;99.90;;;;;;4999686;28;20038;-83
2021/10/19 07:32:23;;;;;;;4.55;3.78;;;13.30;99.90;;;;;;4976115;28;20501;-84
2021/10/19 07:34:49;;;;;;;4.53;3.47;;;13.30;99.90;;;;;;4964640;28;20053;-84
2021/10/19 07:37:15;;;;;;;4.40;4.00;;;13.30;99.90;;;;;;4981294;28;20541;-84
2021/10/19 07:39:41;;;;;;;6.05;3.67;;;13.40;99.90;;;;;;4950461;28;20557;-83
2021/10/19 07:42:07;;;;;;;5.55;3.70;;;13.40;99.90;;;;;;4966438;28;20341;-83
2021/10/19 07:44:39;;;;;;;4.47;4.07;;;13.40;99.90;;;;;;5000951;28;20033;-84
2021/10/19 07:47:07;;;;;;;4.28;3.88;;;13.40;99.90;;;;;;5003968;28;20081;-84
2021/10/19 07:49:33;;;;;;;5.90;4.28;;;13.50;99.90;;;;;;4957729;28;20388;-84
2021/10/19 07:51:58;;;;;;;5.25;4.18;;;13.50;99.90;;;;;;4973053;28;20034;-84
2021/10/19 07:54:24;;;;;;;6.57;3.80;;;13.50;99.90;;;;;;4970381;28;20027;-84
2021/10/19 07:56:50;;;;;;;8.30;4.05;;;13.60;99.90;;;;;;4962496;28;20046;-84
2021/10/19 07:59:15;;;;;;;22.70;4.05;;;13.70;99.90;;;;;;4952368;28;20026;-84
2021/10/19 08:01:41;;;;;;;10.68;4.15;;;13.60;99.90;;;;;;4961018;28;20514;-84
2021/10/19 08:04:07;;;;;;;4.70;4.13;;;13.60;99.90;;;;;;4990280;28;20037;-83
2021/10/19 08:06:33;;;;;;;3.03;2.65;;;13.70;99.90;;;;;;4968143;28;20046;-83
2021/10/19 08:09:00;;;;;;;6.78;2.97;;;13.70;99.90;;;;;;4969931;28;20027;-84
2021/10/19 08:11:26;;;;;;;7.97;3.70;;;13.70;99.90;;;;;;4997800;28;20571;-83
2021/10/19 08:13:55;;;;;;;3.97;3.33;;;13.60;99.90;;;;;;4974015;28;20042;-84
2021/10/19 08:16:21;;;;;;;4.57;2.95;;;13.80;99.90;;;;;;4999217;28;20124;-84
2021/10/19 08:18:46;;;;;;;3.35;2.92;;;13.70;99.90;;;;;;4982818;28;20113;-84
2021/10/19 08:21:12;;;;;;;3.88;3.47;;;13.70;99.90;;;;;;4969974;28;20493;-84
2021/10/19 08:23:37;;;;;;;3.53;3.22;;;13.80;99.90;;;;;;4983436;28;20030;-84
2021/10/19 08:26:03;;;;;;;9.10;2.75;;;13.80;99.90;;;;;;4967578;28;20452;-84
2021/10/19 08:28:31;;;;;;;4.00;3.60;;;13.80;99.90;;;;;;4998179;28;20054;-84
2021/10/19 08:30:56;;;;;;;3.25;2.95;;;13.80;99.90;;;;;;4945992;28;20038;-84
2021/10/19 08:33:22;;;;;;;6.82;3.80;;;13.80;99.90;;;;;;4994457;28;20264;-84
2021/10/19 08:35:47;;;;;;;6.50;4.13;;;13.90;99.90;;;;;;4983894;28;20045;-84
2021/10/19 08:38:13;;;;;;;4.85;3.88;;;13.90;99.90;;;;;;4955392;28;20031;-84
2021/10/19 08:40:43;;;;;;;4.47;3.22;;;13.90;99.90;;;;;;4981217;28;20122;-85
2021/10/19 08:43:09;;;;;;;7.18;2.95;;;13.90;99.90;;;;;;5002748;28;20631;-84
2021/10/19 08:45:35;;;;;;;4.50;3.80;;;13.90;99.90;;;;;;4984906;28;20030;-84
2021/10/19 08:48:02;;;;;;;3.75;3.25;;;14.00;99.90;;;;;;4992916;28;20041;-85
2021/10/19 08:50:27;;;;;;;3.83;3.30;;;13.90;99.90;;;;;;4994334;28;20044;-84
2021/10/19 08:52:53;;;;;;;3.58;3.08;;;13.90;99.90;;;;;;4983382;28;20442;-85
2021/10/19 08:55:19;;;;;;;7.75;3.15;;;14.00;99.90;;;;;;4986288;28;20049;-85
2021/10/19 08:57:45;;;;;;;3.83;3.10;;;14.00;99.90;;;;;;4995835;28;20125;-85
2021/10/19 09:00:11;;;;;;;4.93;3.67;;;14.00;99.90;;;;;;4995233;28;20034;-85
2021/10/19 09:02:43;;;;;;;2.72;2.45;;;14.10;99.90;;;;;;4985863;28;20096;-84
2021/10/19 09:05:22;;;;;;;4.07;2.00;;;14.10;99.90;;;;;;4985995;28;20519;-84
2021/10/19 09:08:02;;;;;;;4.00;3.10;;;14.20;99.90;;;;;;5002258;28;20050;-85
2021/10/19 09:11:01;;;;;;;3.95;3.17;;;14.30;99.90;;;;;;4976080;28;20036;-85
2021/10/19 09:13:29;;;;;;;2.70;2.50;;;14.20;99.90;;;;;;4981566;28;20472;-84
2021/10/19 09:15:55;;;;;;;3.05;2.30;;;14.30;99.90;;;;;;4946990;28;20054;-84
2021/10/19 09:18:21;;;;;;;8.60;2.75;;;14.30;99.90;;;;;;4961445;28;20039;-84
2021/10/19 09:20:49;;;;;;;3.42;2.28;;;14.50;99.90;;;;;;4959371;28;20035;-84
2021/10/19 09:23:18;;;;;;;5.63;2.67;;;14.40;99.90;;;;;;4948771;28;20038;-84
2021/10/19 09:25:46;;;;;;;3.05;2.65;;;14.40;99.90;;;;;;4967683;28;20162;-84
2021/10/19 09:28:14;;;;;;;3.30;2.60;;;14.40;99.90;;;;;;4964022;28;20042;-84
2021/10/19 09:30:49;;;;;;;2.83;2.50;;;14.50;99.90;;;;;;4962093;28;20039;-84
2021/10/19 09:33:19;;;;;;;2.55;2.35;;;14.50;99.90;;;;;;4954946;28;20484;-84
2021/10/19 09:35:48;;;;;;;3.70;2.20;;;14.50;99.90;;;;;;4958775;28;20037;-84
2021/10/19 09:38:14;;;;;;;2.88;2.60;;;14.40;99.90;;;;;;4977544;28;20064;-84
2021/10/19 09:40:50;;;;;;;2.35;2.15;;;14.50;99.90;;;;;;4980252;28;20026;-84
2021/10/19 09:43:24;;;;;;;2.38;2.17;;;14.50;99.90;;;;;;4998037;28;20042;-84
2021/10/19 09:45:52;;;;;;;2.47;2.28;;;14.60;99.90;;;;;;4987965;28;20347;-84
2021/10/19 09:48:19;;;;;;;3.50;3.03;;;14.60;99.90;;;;;;4985961;28;20040;-85
2021/10/19 09:50:46;;;;;;;4.95;3.00;;;14.70;99.90;;;;;;4970451;28;20429;-84
2021/10/19 09:53:13;;;;;;;3.17;2.88;;;14.70;99.90;;;;;;4981699;28;20505;-84
2021/10/19 09:55:40;;;;;;;3.90;3.30;;;14.80;99.90;;;;;;5001154;28;20034;-85
2021/10/19 09:58:05;;;;;;;4.95;2.42;;;14.80;99.90;;;;;;4996773;28;20037;-85
2021/10/19 10:00:33;;;;;;;5.70;2.75;;;14.90;99.90;;;;;;4964683;28;20516;-84
2021/10/19 10:03:04;;;;;;;3.97;2.53;;;14.90;99.90;;;;;;4997380;28;20038;-84
2021/10/19 10:05:30;;;;;;;2.05;1.90;;;14.90;99.90;;;;;;4984995;28;20100;-85
2021/10/19 10:07:59;;;;;;;2.15;1.92;;;14.90;99.90;;;;;;4970239;28;20067;-85
2021/10/19 10:10:25;;;;;;;2.20;2.00;;;14.80;99.90;;;;;;4988051;28;20025;-85
2021/10/19 10:13:01;;;;;;;2.30;1.90;;;14.90;99.90;;;;;;4985877;28;20036;-86
2021/10/19 10:15:32;;;;;;;3.17;2.88;;;14.90;99.90;;;;;;5004206;28;20109;-84
2021/10/19 10:18:01;;;;;;;2.60;2.40;;;15.00;99.90;;;;;;4991722;28;20053;-84
2021/10/19 10:20:34;;;;;;;3.65;2.00;;;15.00;99.90;;;;;;5000618;28;20057;-84
2021/10/19 10:23:26;;;;;;;4.03;2.53;;;14.90;99.90;;;;;;4997504;28;20475;-83
2021/10/19 10:25:57;;;;;;;3.33;2.42;;;14.90;99.90;;;;;;4956046;28;20035;-84
2021/10/19 10:28:27;;;;;;;3.25;1.90;;;15.00;99.90;;;;;;4959084;28;20037;-85
2021/10/19 10:30:57;;;;;;;2.05;1.85;;;15.00;99.90;;;;;;4966687;28;20027;-83
2021/10/19 10:33:37;;;;;;;2.63;1.73;;;15.00;99.90;;;;;;4989516;28;20038;-84
2021/10/19 10:36:07;;;;;;;2.35;1.92;;;14.90;99.90;;;;;;4962995;28;20050;-83
2021/10/19 10:38:33;;;;;;;1.60;1.50;;;15.00;99.90;;;;;;4992783;28;20065;-83
2021/10/19 10:41:14;;;;;;;3.45;1.65;;;15.00;99.90;;;;;;5003947;28;20398;-83
2021/10/19 10:43:40;;;;;;;2.47;2.28;;;15.00;99.90;;;;;;4985763;28;20035;-84
2021/10/19 10:46:07;;;;;;;2.83;2.30;;;15.00;99.90;;;;;;4995723;28;20533;-83
2021/10/19 10:48:34;;;;;;;3.80;1.77;;;15.00;99.90;;;;;;5001862;28;20031;-84
2021/10/19 10:51:00;;;;;;;1.90;1.45;;;15.10;99.90;;;;;;4956485;28;20045;-84
2021/10/19 10:53:37;;;;;;;2.92;2.13;;;15.10;99.90;;;;;;4990084;28;20477;-83
2021/10/19 10:56:06;;;;;;;3.80;2.55;;;15.20;99.90;;;;;;5001184;28;20113;-85
2021/10/19 10:58:37;;;;;;;4.10;2.33;;;15.20;99.90;;;;;;4639746;28;10000029;-85
2021/10/19 11:01:15;;;;;;;1.35;1.20;;;15.20;99.90;;;;;;4992844;28;20071;-84
2021/10/19 11:03:42;;;;;;;2.35;2.15;;;15.20;99.90;;;;;;5020169;28;20042;-84
2021/10/19 11:06:11;;;;;;;2.33;1.60;;;15.30;99.90;;;;;;4986088;28;20053;-84
2021/10/19 11:08:37;;;;;;;1.63;1.52;;;15.40;99.90;;;;;;4986807;28;20029;-84
2021/10/19 11:11:09;;;;;;;1.88;1.60;;;15.40;99.90;;;;;;4999432;28;20041;-84
2021/10/19 11:14:07;;;;;;;3.30;2.13;;;15.40;99.90;;;;;;5001175;28;20041;-85
2021/10/19 11:16:33;;;;;;;1.73;1.63;;;15.40;99.90;;;;;;4971703;28;20038;-85
2021/10/19 11:19:06;;;;;;;2.45;2.00;;;15.40;99.90;;;;;;4999039;28;20092;-85
2021/10/19 11:21:32;;;;;;;2.00;1.90;;;15.50;99.90;;;;;;4954628;28;20451;-85
2021/10/19 11:23:58;;;;;;;1.52;1.10;;;15.40;99.90;;;;;;4956635;28;20042;-85
2021/10/19 11:26:24;;;;;;;1.55;1.40;;;15.60;99.90;;;;;;4964771;28;20045;-84
2021/10/19 11:28:50;;;;;;;3.33;1.23;;;15.60;99.90;;;;;;4962472;28;20043;-85
2021/10/19 11:31:15;;;;;;;1.20;1.10;;;15.50;99.90;;;;;;4965048;28;20030;-85
2021/10/19 11:33:43;;;;;;;2.13;1.73;;;15.60;99.90;;;;;;4973214;28;20316;-86
2021/10/19 11:36:09;;;;;;;1.70;1.40;;;15.60;99.90;;;;;;4953053;28;20092;-85
2021/10/19 11:38:42;;;;;;;1.83;1.67;;;15.70;99.90;;;;;;4979490;28;20039;-85
2021/10/19 11:41:09;;;;;;;2.33;1.80;;;15.60;99.90;;;;;;4972316;28;20410;-85
2021/10/19 11:43:41;;;;;;;1.52;1.42;;;15.70;99.90;;;;;;4971927;28;20058;-85
2021/10/19 11:46:08;;;;;;;1.65;1.55;;;15.60;99.90;;;;;;4979671;28;20459;-85
2021/10/19 11:48:34;;;;;;;1.67;1.58;;;15.70;99.90;;;;;;4969944;28;20490;-84
2021/10/19 11:51:03;;;;;;;2.03;1.83;;;15.60;99.90;;;;;;4974714;28;20614;-84
2021/10/19 11:53:29;;;;;;;2.53;2.33;;;15.60;99.90;;;;;;4954603;28;20173;-84
2021/10/19 11:55:55;;;;;;;2.85;2.65;;;15.60;99.90;;;;;;4968484;28;20026;-84
2021/10/19 11:58:23;;;;;;;4.15;2.22;;;15.70;99.90;;;;;;4953608;28;20045;-84
2021/10/19 12:00:51;;;;;;;5.53;4.00;;;15.80;99.90;;;;;;4963919;28;20049;-84
2021/10/19 12:03:17;;;;;;;3.72;3.05;;;15.70;99.90;;;;;;4982802;28;20034;-84
2021/10/19 12:05:43;;;;;;;3.50;3.08;;;15.80;99.90;;;;;;4991701;28;20520;-84
2021/10/19 12:08:09;;;;;;;4.05;3.42;;;15.80;99.90;;;;;;4977841;28;20466;-85
2021/10/19 12:10:34;;;;;;;4.88;3.80;;;15.80;99.90;;;;;;4948318;28;20054;-84
2021/10/19 12:13:04;;;;;;;4.88;4.38;;;15.80;99.90;;;;;;4974302;28;20065;-84
2021/10/19 12:15:32;;;;;;;5.63;5.10;;;15.90;99.90;;;;;;4997311;28;20030;-86
2021/10/19 12:18:27;;;;;;;7.95;5.35;;;15.90;99.90;;;;;;4950970;28;20049;-84
2021/10/19 12:20:53;;;;;;;9.10;7.90;;;16.00;99.90;;;;;;4968553;28;20062;-83
2021/10/19 12:23:19;;;;;;;9.18;6.05;;;16.00;99.90;;;;;;4976273;28;20124;-85
2021/10/19 12:25:49;;;;;;;8.93;7.90;;;16.00;99.90;;;;;;4953273;28;20526;-84
2021/10/19 12:28:34;;;;;;;7.30;6.05;;;16.00;99.90;;;;;;4984744;28;20454;-84
2021/10/19 12:30:59;;;;;;;10.05;8.43;;;16.10;99.90;;;;;;4967624;28;20099;-84
2021/10/19 12:33:27;;;;;;;5.82;5.32;;;16.10;99.90;;;;;;4997154;28;20116;-84
2021/10/19 12:35:53;;;;;;;7.13;6.43;;;16.10;99.90;;;;;;4973872;28;20035;-85